Time;durP1;ratioP1;P1;durP2;ratioP2;P2;SDS_P1;SDS_P2;PMS_P1;PMS_P2;Temp;Humidity;BMP_temperature;BMP_pressure;BME280_temperature;BME280_humidity;BME280_pressure;Samples;Min_cycle;Max_cycle;Signal;HPM_P1;HPM_P2
2021/06/19 00:00:31;;;;;;;7.83;4.35;;;;;;;16.96;77.93;95751.89;1782592;80;21017;-60
2021/06/19 00:03:00;;;;;;;5.15;3.85;;;;;;;16.90;78.20;95752.16;1787563;80;21017;-59
2021/06/19 00:05:27;;;;;;;6.90;4.20;;;;;;;16.92;77.26;95738.30;1787683;80;21487;-60
2021/06/19 00:07:54;;;;;;;3.72;3.42;;;;;;;16.83;78.25;95740.42;1787613;80;21008;-60
2021/06/19 00:10:21;;;;;;;4.42;3.77;;;;;;;16.80;78.28;95732.53;1787579;80;21056;-60
2021/06/19 00:12:52;;;;;;;6.35;4.10;;;;;;;16.81;78.11;95732.95;1787800;80;21463;-60
2021/06/19 00:15:22;;;;;;;5.72;4.17;;;;;;;16.84;78.66;95730.63;1787683;80;20998;-60
2021/06/19 00:17:49;;;;;;;3.85;3.45;;;;;;;16.88;79.08;95726.88;1787604;80;21005;-60
2021/06/19 00:20:21;;;;;;;4.50;3.80;;;;;;;16.87;78.52;95730.02;1787713;80;20945;-60
2021/06/19 00:22:47;;;;;;;4.62;3.30;;;;;;;16.83;78.00;95726.20;1787593;80;21004;-59
2021/06/19 00:25:17;;;;;;;6.53;3.70;;;;;;;16.82;78.19;95732.01;1787626;80;21434;-60
2021/06/19 00:27:45;;;;;;;4.33;3.65;;;;;;;16.73;78.00;95736.38;1787769;80;21604;-60
2021/06/19 00:30:14;;;;;;;5.72;3.40;;;;;;;16.64;78.18;95738.06;1787125;80;21026;-60
2021/06/19 00:32:41;;;;;;;7.10;3.45;;;;;;;16.63;78.35;95730.54;1787584;80;21036;-59
2021/06/19 00:35:09;;;;;;;6.10;3.90;;;;;;;16.63;79.11;95734.98;1787778;80;21510;-60
2021/06/19 00:37:37;;;;;;;4.22;3.45;;;;;;;16.62;79.28;95742.58;1787714;80;21507;-59
2021/06/19 00:40:11;;;;;;;5.17;3.02;;;;;;;16.59;78.86;95745.37;1787643;80;21077;-60
2021/06/19 00:42:39;;;;;;;3.80;3.30;;;;;;;16.62;78.59;95734.11;1787811;80;21028;-60
2021/06/19 00:45:07;;;;;;;3.30;3.00;;;;;;;16.65;78.02;95738.45;1787530;80;21065;-60
2021/06/19 00:47:41;;;;;;;5.60;2.62;;;;;;;16.53;77.89;95738.50;1787812;80;21056;-60
2021/06/19 00:50:10;;;;;;;5.70;3.45;;;;;;;16.43;78.16;95736.66;1787987;80;21068;-60
2021/06/19 00:52:36;;;;;;;3.02;2.72;;;;;;;16.51;78.48;95741.68;1787623;80;21009;-60
2021/06/19 00:55:06;;;;;;;3.22;2.87;;;;;;;16.56;78.06;95733.52;1787457;80;21025;-60
2021/06/19 00:57:33;;;;;;;4.85;3.00;;;;;;;16.55;77.86;95742.41;1787802;80;21005;-59
2021/06/19 01:00:01;;;;;;;4.50;2.80;;;;;;;16.52;77.96;95739.41;1787705;80;21551;-60
2021/06/19 01:02:29;;;;;;;2.90;2.60;;;;;;;16.51;77.65;95737.69;1787565;80;21017;-59
2021/06/19 01:04:56;;;;;;;3.22;2.83;;;;;;;16.39;78.01;95740.83;1787405;80;21009;-60
2021/06/19 01:07:23;;;;;;;3.35;3.05;;;;;;;16.28;78.86;95741.69;1787812;80;20993;-60
2021/06/19 01:09:50;;;;;;;3.98;2.95;;;;;;;16.27;78.34;95739.97;1787797;80;21503;-59
2021/06/19 01:12:23;;;;;;;3.52;2.92;;;;;;;16.25;78.02;95739.16;1787476;80;21028;-60
2021/06/19 01:14:52;;;;;;;3.52;3.08;;;;;;;16.19;78.53;95738.93;1756952;80;21575;-60
2021/06/19 01:17:20;;;;;;;5.67;2.85;;;;;;;16.11;78.44;95737.89;1787668;80;20997;-60
2021/06/19 01:20:07;;;;;;;3.33;3.02;;;;;;;16.05;78.48;95744.80;1787585;80;21008;-59
2021/06/19 01:22:37;;;;;;;5.80;3.40;;;;;;;15.99;78.75;95740.55;1787742;80;21511;-60
2021/06/19 01:25:08;;;;;;;3.20;2.62;;;;;;;15.92;78.70;95748.81;1787861;80;21033;-60
2021/06/19 01:27:34;;;;;;;3.92;3.20;;;;;;;15.86;79.24;95752.58;1787785;80;21491;-60
2021/06/19 01:30:05;;;;;;;3.77;2.75;;;;;;;15.87;78.78;95744.12;1787779;80;20994;-59
2021/06/19 01:32:36;;;;;;;5.25;2.77;;;;;;;15.87;79.16;95752.97;1787734;80;21045;-60
2021/06/19 01:35:05;;;;;;;4.53;2.62;;;;;;;15.75;79.58;95747.66;1787475;80;21014;-60
2021/06/19 01:37:32;;;;;;;4.55;3.98;;;;;;;15.72;80.07;95748.22;1787947;80;21455;-60
2021/06/19 01:40:18;;;;;;;5.70;3.00;;;;;;;15.73;80.72;95756.16;1788345;80;21068;-60
2021/06/19 01:42:48;;;;;;;4.33;2.60;;;;;;;15.73;80.62;95747.31;1796215;79;21526;-60
2021/06/19 01:45:21;;;;;;;2.70;2.30;;;;;;;15.77;79.95;95745.81;1796344;80;20973;-60
2021/06/19 01:47:48;;;;;;;5.30;2.60;;;;;;;15.78;80.13;95755.52;1796096;80;21008;-60
2021/06/19 01:50:20;;;;;;;3.62;2.42;;;;;;;15.77;80.37;95754.23;1796584;80;21044;-60
2021/06/19 01:52:47;;;;;;;2.50;2.30;;;;;;;15.68;80.55;95747.44;1796327;80;21049;-60
2021/06/19 01:55:15;;;;;;;2.45;2.25;;;;;;;15.70;81.08;95752.72;1796232;79;20989;-59
2021/06/19 01:57:42;;;;;;;2.58;2.37;;;;;;;15.67;80.62;95756.79;1796711;80;21041;-60
2021/06/19 02:00:17;;;;;;;3.62;2.60;;;;;;;15.66;81.19;95751.08;1796369;79;21486;-60
2021/06/19 02:02:44;;;;;;;5.17;2.37;;;;;;;15.65;80.47;95751.98;1796097;80;21085;-60
2021/06/19 02:05:13;;;;;;;2.62;2.42;;;;;;;15.72;80.41;95750.44;1796487;79;21477;-60
2021/06/19 02:07:54;;;;;;;2.85;2.33;;;;;;;15.70;80.53;95747.39;1796246;80;20989;-60
2021/06/19 02:10:28;;;;;;;3.12;2.40;;;;;;;15.69;80.15;95748.30;1796102;79;21025;-60
2021/06/19 02:12:56;;;;;;;3.25;2.95;;;;;;;15.65;80.25;95744.00;1796269;80;21009;-60
2021/06/19 02:15:24;;;;;;;4.12;2.85;;;;;;;15.70;80.35;95748.29;1796429;80;20989;-60
2021/06/19 02:17:51;;;;;;;2.98;2.75;;;;;;;15.68;80.03;95741.26;1795881;79;21013;-60
2021/06/19 02:20:20;;;;;;;2.58;2.10;;;;;;;15.69;80.00;95738.55;1796312;80;21037;-60
2021/06/19 02:22:47;;;;;;;2.40;2.20;;;;;;;15.74;79.80;95734.41;1796381;79;21495;-60
2021/06/19 02:25:18;;;;;;;5.62;2.80;;;;;;;15.78;79.44;95736.03;1796260;80;21012;-59
2021/06/19 02:28:01;;;;;;;3.10;2.75;;;;;;;15.78;79.30;95733.37;1796290;80;21008;-60
2021/06/19 02:30:36;;;;;;;2.62;2.42;;;;;;;15.78;79.10;95728.91;1795501;80;21079;-60
2021/06/19 02:33:05;;;;;;;3.85;2.72;;;;;;;15.76;78.98;95725.91;1795796;80;21084;-60
2021/06/19 02:35:35;;;;;;;4.08;3.02;;;;;;;15.72;78.67;95724.27;1796266;79;21017;-60
2021/06/19 02:38:04;;;;;;;4.20;2.90;;;;;;;15.69;78.75;95723.03;1796186;80;21012;-60
2021/06/19 02:40:32;;;;;;;4.30;3.00;;;;;;;15.71;78.68;95728.73;1796393;79;21498;-59
2021/06/19 02:42:59;;;;;;;10.88;2.90;;;;;;;15.66;78.24;95729.80;1796507;79;21020;-60
2021/06/19 02:45:27;;;;;;;4.20;2.98;;;;;;;15.55;78.14;95733.72;1795879;80;21010;-60
2021/06/19 02:47:57;;;;;;;3.67;3.05;;;;;;;15.43;78.22;95731.48;1795814;80;21530;-59
2021/06/19 02:50:28;;;;;;;4.22;2.50;;;;;;;15.31;78.44;95731.91;1796119;79;21510;-60
2021/06/19 02:52:56;;;;;;;3.50;3.20;;;;;;;15.20;78.69;95728.78;1796078;80;20996;-60
2021/06/19 02:55:28;;;;;;;5.10;2.85;;;;;;;15.21;79.18;95731.83;1796256;79;20969;-60
2021/06/19 02:57:55;;;;;;;3.30;3.00;;;;;;;15.24;79.46;95727.27;1796306;80;21506;-61
2021/06/19 03:00:23;;;;;;;3.75;3.45;;;;;;;15.22;80.01;95725.14;1795952;80;21017;-60
2021/06/19 03:02:51;;;;;;;5.97;3.20;;;;;;;15.20;79.83;95726.12;1796254;80;21048;-60
2021/06/19 03:05:22;;;;;;;4.62;3.65;;;;;;;15.18;80.41;95726.16;1796244;80;21056;-60
2021/06/19 03:07:48;;;;;;;4.53;2.47;;;;;;;15.23;80.22;95729.99;1796439;79;21558;-60
2021/06/19 03:10:19;;;;;;;4.12;2.90;;;;;;;15.22;80.80;95723.81;1796171;80;21052;-60
2021/06/19 03:12:46;;;;;;;4.83;4.33;;;;;;;15.18;81.09;95729.28;1796075;80;20973;-60
2021/06/19 03:15:14;;;;;;;5.87;4.80;;;;;;;15.25;81.12;95726.83;1796356;80;21427;-60
2021/06/19 03:17:41;;;;;;;8.93;5.28;;;;;;;15.30;81.62;95722.22;1795945;79;21009;-60
2021/06/19 03:20:12;;;;;;;4.17;3.77;;;;;;;15.42;82.05;95724.88;1796231;80;20965;-60
2021/06/19 03:22:49;;;;;;;3.77;3.45;;;;;;;15.50;81.74;95725.50;1796266;79;21016;-59
2021/06/19 03:25:20;;;;;;;5.70;5.20;;;;;;;15.65;81.65;95724.05;1796231;79;21009;-61
2021/06/19 03:27:47;;;;;;;5.25;3.52;;;;;;;15.75;81.41;95718.86;1796354;80;21096;-59
2021/06/19 03:30:18;;;;;;;7.30;4.75;;;;;;;15.84;81.02;95721.63;1795972;80;21052;-60
2021/06/19 03:32:46;;;;;;;5.37;4.87;;;;;;;15.96;80.88;95726.03;1796065;80;21040;-60
2021/06/19 03:35:14;;;;;;;6.50;5.00;;;;;;;16.12;80.48;95732.97;1795704;80;21006;-60
2021/06/19 03:37:41;;;;;;;5.03;4.45;;;;;;;16.21;80.08;95729.09;1796217;80;21013;-60
2021/06/19 03:40:10;;;;;;;7.30;4.85;;;;;;;16.33;79.65;95726.40;1796099;80;21056;-60
2021/06/19 03:42:41;;;;;;;5.53;5.00;;;;;;;16.45;79.04;95725.92;1788156;80;21061;-60
2021/06/19 03:45:10;;;;;;;5.85;5.15;;;;;;;16.50;78.59;95715.95;1787395;80;21076;-60
2021/06/19 03:47:42;;;;;;;7.53;5.22;;;;;;;16.60;78.74;95716.45;1787407;80;21088;-60
2021/06/19 03:50:12;;;;;;;5.55;4.80;;;;;;;16.70;78.48;95719.63;1787724;80;21017;-60
2021/06/19 03:52:38;;;;;;;8.28;4.92;;;;;;;16.79;77.71;95716.63;1787701;80;21570;-60
2021/06/19 03:55:10;;;;;;;6.17;4.72;;;;;;;16.86;77.55;95716.78;1787527;80;21008;-60
2021/06/19 03:57:37;;;;;;;5.00;4.60;;;;;;;16.95;77.34;95712.85;1787700;80;21021;-60
2021/06/19 04:00:08;;;;;;;5.35;4.40;;;;;;;16.97;76.81;95710.52;1787417;80;20985;-59
2021/06/19 04:02:37;;;;;;;5.05;4.45;;;;;;;16.94;76.90;95713.80;1786864;80;20993;-60
2021/06/19 04:05:06;;;;;;;6.62;4.53;;;;;;;16.93;77.19;95710.23;1787441;80;21001;-60
2021/06/19 04:07:32;;;;;;;5.28;4.22;;;;;;;16.92;77.39;95707.66;1787838;80;21427;-60
2021/06/19 04:09:59;;;;;;;5.47;4.45;;;;;;;16.93;77.06;95714.70;1787933;80;21563;-60
2021/06/19 04:12:26;;;;;;;8.15;4.33;;;;;;;16.97;76.95;95717.19;1787899;80;20997;-60
2021/06/19 04:14:53;;;;;;;4.70;4.05;;;;;;;17.01;76.80;95716.58;1787700;80;21070;-60
2021/06/19 04:17:20;;;;;;;4.80;4.40;;;;;;;17.07;76.49;95720.34;1787279;80;21009;-60
2021/06/19 04:19:47;;;;;;;4.83;4.10;;;;;;;17.11;76.31;95716.63;1787938;80;21526;-60
2021/06/19 04:22:15;;;;;;;5.58;4.05;;;;;;;17.16;76.04;95723.96;1787455;80;21507;-60
2021/06/19 04:24:43;;;;;;;5.40;4.90;;;;;;;17.27;76.06;95724.83;1787482;80;21034;-60
2021/06/19 04:27:20;;;;;;;6.70;4.47;;;;;;;17.36;75.80;95723.55;1787709;80;21052;-60
2021/06/19 04:29:47;;;;;;;7.17;6.47;;;;;;;17.44;75.44;95724.11;1787712;80;21005;-60
2021/06/19 04:32:15;;;;;;;4.83;4.42;;;;;;;17.59;75.68;95716.77;1787700;80;21061;-59
2021/06/19 04:34:43;;;;;;;6.28;3.85;;;;;;;17.76;75.64;95717.33;1787608;80;20982;-60
2021/06/19 04:37:15;;;;;;;4.47;3.95;;;;;;;17.90;75.38;95722.09;1787543;80;21471;-60
2021/06/19 04:39:56;;;;;;;6.95;4.08;;;;;;;18.05;75.22;95720.05;1787947;80;20974;-60
2021/06/19 04:42:18;;;;;;;4.12;3.65;;;;;;;18.18;74.49;95716.82;1792798;80;21002;-60
2021/06/19 04:47:24;;;;;;;3.87;3.47;;;;;;;18.40;73.16;95716.69;1796346;80;21032;-60
2021/06/19 04:49:52;;;;;;;4.30;3.58;;;;;;;18.52;73.34;95711.63;1796357;80;21044;-60
2021/06/19 04:52:18;;;;;;;5.47;3.90;;;;;;;18.57;72.27;95712.71;1796297;79;21008;-60
2021/06/19 04:54:45;;;;;;;5.00;4.60;;;;;;;18.63;72.16;95719.11;1796192;80;20974;-59
2021/06/19 04:57:11;;;;;;;4.45;4.05;;;;;;;18.72;72.15;95717.34;1796439;79;20992;-61
2021/06/19 04:59:38;;;;;;;7.67;6.25;;;;;;;18.78;71.15;95722.88;1796152;80;21561;-60
2021/06/19 05:02:05;;;;;;;9.50;8.45;;;;;;;18.82;70.87;95723.11;1796066;80;21020;-60
2021/06/19 05:04:31;;;;;;;9.33;7.37;;;;;;;18.80;70.41;95723.20;1796216;80;21083;-60
2021/06/19 05:06:58;;;;;;;17.85;10.55;;;;;;;18.86;71.24;95722.51;1796407;80;21000;-59
2021/06/19 05:09:24;;;;;;;6.72;5.45;;;;;;;18.94;71.04;95725.19;1796148;80;21013;-60
2021/06/19 05:11:51;;;;;;;17.32;12.40;;;;;;;18.96;70.86;95718.44;1796179;80;21013;-60
2021/06/19 05:14:18;;;;;;;5.42;4.70;;;;;;;18.92;70.05;95720.86;1796411;79;21033;-60
2021/06/19 05:16:45;;;;;;;7.08;4.50;;;;;;;18.97;70.01;95721.02;1796042;80;21004;-60
2021/06/19 05:19:12;;;;;;;5.17;4.67;;;;;;;19.03;70.21;95715.38;1796142;79;20973;-60
2021/06/19 05:21:40;;;;;;;6.60;4.50;;;;;;;19.11;69.98;95715.47;1796561;79;21447;-60
2021/06/19 05:24:08;;;;;;;4.30;3.90;;;;;;;19.17;69.93;95722.70;1796269;79;21010;-59
2021/06/19 05:26:35;;;;;;;6.10;3.70;;;;;;;19.28;70.24;95722.17;1796074;80;21537;-60
2021/06/19 05:29:02;;;;;;;5.05;4.50;;;;;;;19.42;70.33;95727.66;1796435;80;20937;-59
2021/06/19 05:31:29;;;;;;;5.00;4.50;;;;;;;19.59;70.00;95720.59;1795998;79;21012;-60
2021/06/19 05:33:55;;;;;;;5.95;4.30;;;;;;;19.67;69.46;95716.59;1796264;80;20985;-60
2021/06/19 05:36:22;;;;;;;5.35;4.35;;;;;;;19.75;69.46;95714.84;1796174;79;21005;-60
2021/06/19 05:38:49;;;;;;;5.28;4.28;;;;;;;19.96;68.90;95721.34;1796449;79;20992;-60
2021/06/19 05:41:15;;;;;;;4.90;4.40;;;;;;;19.96;68.90;95721.34;1794438;79;21044;-60
2021/06/19 05:43:42;;;;;;;9.68;4.53;;;;;;;20.16;68.98;95716.24;1787694;80;21001;-60
2021/06/19 05:46:08;;;;;;;6.37;3.62;;;;;;;20.26;68.80;95716.13;1787745;80;21017;-59
2021/06/19 05:48:35;;;;;;;3.87;3.42;;;;;;;20.26;68.80;95716.13;1787117;80;21052;-60
2021/06/19 05:51:02;;;;;;;4.87;3.22;;;;;;;20.32;68.59;95705.95;1787674;80;21041;-60
2021/06/19 05:53:28;;;;;;;4.45;2.90;;;;;;;20.64;67.98;95724.78;1787314;80;21076;-60
2021/06/19 05:55:55;;;;;;;4.25;2.90;;;;;;;20.64;67.98;95724.78;1787790;80;20954;-60
2021/06/19 05:58:21;;;;;;;2.98;2.70;;;;;;;20.79;68.11;95721.71;1787444;80;21014;-59
2021/06/19 06:00:51;;;;;;;3.60;2.60;;;;;;;20.92;68.01;95721.39;1787270;80;21007;-60
2021/06/19 06:03:18;;;;;;;3.87;2.55;;;;;;;21.09;67.36;95720.88;1787417;80;21025;-60
2021/06/19 06:05:45;;;;;;;3.90;2.62;;;;;;;21.20;66.09;95723.81;1787731;80;21491;-60
2021/06/19 06:08:11;;;;;;;4.25;2.92;;;;;;;21.28;64.03;95721.53;1787485;80;21479;-60
2021/06/19 06:10:38;;;;;;;3.02;2.75;;;;;;;21.34;63.91;95717.62;1787416;80;21016;-59
2021/06/19 06:13:05;;;;;;;2.90;2.70;;;;;;;21.49;62.82;95727.95;1787750;80;21002;-59
2021/06/19 06:15:32;;;;;;;3.37;2.80;;;;;;;21.59;63.24;95725.97;1787660;80;21000;-60
2021/06/19 06:17:59;;;;;;;3.50;3.15;;;;;;;21.64;62.02;95734.23;1787652;80;21064;-60
2021/06/19 06:20:25;;;;;;;3.70;3.20;;;;;;;21.73;62.66;95730.52;1787380;80;21017;-60
2021/06/19 06:22:52;;;;;;;3.50;3.17;;;;;;;21.80;62.36;95733.71;1787341;80;21016;-60
2021/06/19 06:25:20;;;;;;;3.47;3.17;;;;;;;21.82;62.92;95735.80;1787395;80;21056;-60
2021/06/19 06:27:47;;;;;;;4.30;3.20;;;;;;;21.94;62.86;95733.71;1787478;80;21037;-59
2021/06/19 06:30:15;;;;;;;2.95;2.75;;;;;;;21.96;61.73;95728.25;1787164;80;20982;-60
2021/06/19 06:32:41;;;;;;;3.42;3.12;;;;;;;21.99;62.74;95730.26;1787671;80;21040;-60
2021/06/19 06:35:10;;;;;;;6.10;3.40;;;;;;;22.04;62.69;95724.61;1787471;80;21083;-60
2021/06/19 06:37:38;;;;;;;5.22;3.20;;;;;;;22.16;62.72;95723.84;1787495;80;20970;-60
2021/06/19 06:40:09;;;;;;;3.52;3.10;;;;;;;22.27;62.38;95721.00;1787832;80;20994;-60
2021/06/19 06:42:40;;;;;;;5.10;3.25;;;;;;;22.31;61.01;95713.14;1787523;80;21069;-60
2021/06/19 06:45:07;;;;;;;3.60;3.10;;;;;;;22.39;61.47;95713.52;1787442;80;21077;-60
2021/06/19 06:47:34;;;;;;;4.12;3.20;;;;;;;22.40;60.50;95712.08;1787471;80;21033;-60
2021/06/19 06:50:00;;;;;;;3.60;3.10;;;;;;;22.42;60.03;95723.58;1787489;80;21001;-60
2021/06/19 06:52:27;;;;;;;3.17;2.90;;;;;;;22.46;59.59;95721.58;1788011;80;21444;-59
2021/06/19 06:54:53;;;;;;;3.27;2.90;;;;;;;22.55;59.71;95712.04;1787708;80;21043;-60
2021/06/19 06:57:20;;;;;;;3.67;3.37;;;;;;;22.63;59.38;95721.36;1787609;80;21357;-60
2021/06/19 06:59:46;;;;;;;6.08;2.77;;;;;;;22.77;58.96;95716.42;1787904;80;20954;-60
2021/06/19 07:02:13;;;;;;;3.25;2.80;;;;;;;22.81;56.93;95718.45;1787333;80;21005;-60
2021/06/19 07:04:39;;;;;;;3.87;3.08;;;;;;;22.81;56.98;95719.80;1787349;80;21542;-59
2021/06/19 07:07:06;;;;;;;3.17;2.87;;;;;;;22.89;57.25;95714.77;1787724;80;20989;-60
2021/06/19 07:09:32;;;;;;;3.50;3.20;;;;;;;22.99;56.39;95725.83;1787698;80;20997;-60
2021/06/19 07:11:59;;;;;;;6.60;5.03;;;;;;;23.07;56.78;95724.83;1787523;80;21005;-60
2021/06/19 07:14:26;;;;;;;3.55;2.90;;;;;;;23.18;57.20;95724.97;1787670;80;21472;-59
2021/06/19 07:16:52;;;;;;;3.00;2.80;;;;;;;23.28;57.69;95722.53;1787307;80;21045;-60
2021/06/19 07:19:19;;;;;;;3.77;3.47;;;;;;;23.27;56.31;95723.02;1787615;80;21538;-60
2021/06/19 07:21:45;;;;;;;8.58;4.62;;;;;;;23.37;57.03;95717.03;1787582;80;21017;-59
2021/06/19 07:24:12;;;;;;;6.03;3.60;;;;;;;23.41;55.83;95718.53;1787347;80;21512;-60
2021/06/19 07:26:38;;;;;;;4.08;3.20;;;;;;;23.48;57.79;95729.27;1787496;80;21001;-60
2021/06/19 07:29:05;;;;;;;3.30;3.05;;;;;;;23.59;57.24;95728.08;1787535;80;21503;-60
2021/06/19 07:31:32;;;;;;;4.28;2.77;;;;;;;23.53;55.29;95737.90;1787736;80;20998;-65
2021/06/19 07:33:58;;;;;;;4.33;2.77;;;;;;;23.58;56.28;95734.41;1787245;80;21367;-60
2021/06/19 07:36:25;;;;;;;3.50;3.05;;;;;;;23.59;56.98;95735.30;1787904;80;21009;-60
2021/06/19 07:38:51;;;;;;;3.20;2.95;;;;;;;23.67;56.82;95734.28;1787786;80;20954;-60
2021/06/19 07:41:18;;;;;;;3.65;3.25;;;;;;;23.64;55.38;95735.36;1787727;80;21511;-60
2021/06/19 07:43:45;;;;;;;3.33;3.02;;;;;;;23.71;55.04;95739.82;1777649;80;21539;-60
2021/06/19 07:46:11;;;;;;;3.22;2.80;;;;;;;23.82;55.48;95732.41;1777461;81;21488;-59
2021/06/19 07:48:38;;;;;;;4.80;3.22;;;;;;;23.92;54.95;95744.27;1777949;81;21492;-60
2021/06/19 07:51:05;;;;;;;3.30;3.00;;;;;;;23.95;55.34;95737.31;1777857;81;20950;-60
2021/06/19 07:53:32;;;;;;;3.17;2.87;;;;;;;24.01;55.30;95736.02;1777799;81;21040;-60
2021/06/19 07:55:59;;;;;;;2.83;2.62;;;;;;;24.10;52.89;95725.46;1777605;81;21571;-60
2021/06/19 07:58:25;;;;;;;3.30;2.98;;;;;;;24.28;54.22;95724.64;1777669;80;21089;-60
2021/06/19 08:00:52;;;;;;;3.00;2.80;;;;;;;24.54;53.93;95730.89;1777639;81;21058;-60
2021/06/19 08:03:19;;;;;;;3.52;2.90;;;;;;;24.67;53.53;95731.36;1777468;80;21108;-59
2021/06/19 08:05:47;;;;;;;4.15;3.00;;;;;;;24.50;51.24;95732.11;1777825;81;21062;-60
2021/06/19 08:08:14;;;;;;;3.77;2.90;;;;;;;24.42;51.10;95733.12;1777422;81;21006;-60
2021/06/19 08:10:41;;;;;;;4.55;2.70;;;;;;;24.44;53.02;95726.25;1778305;80;21518;-60
2021/06/19 08:13:07;;;;;;;2.95;2.65;;;;;;;24.53;53.21;95728.33;1777554;81;21010;-60
2021/06/19 08:15:35;;;;;;;2.95;2.58;;;;;;;24.57;52.36;95713.16;1777642;81;21013;-59
2021/06/19 08:18:03;;;;;;;3.65;2.92;;;;;;;24.55;52.85;95727.73;1777559;81;21594;-60
2021/06/19 08:20:31;;;;;;;2.90;2.30;;;;;;;24.56;51.77;95725.40;1777768;81;21066;-59
2021/06/19 08:22:58;;;;;;;3.17;2.60;;;;;;;24.45;51.56;95722.13;1777874;81;21002;-60
2021/06/19 08:25:25;;;;;;;2.37;2.25;;;;;;;24.33;50.17;95715.73;1777787;81;21005;-60
2021/06/19 08:27:51;;;;;;;2.52;2.33;;;;;;;24.41;50.44;95720.59;1778060;81;21022;-60
2021/06/19 08:30:19;;;;;;;2.85;2.65;;;;;;;24.52;51.37;95701.84;1778052;80;21022;-59
2021/06/19 08:32:46;;;;;;;3.22;2.27;;;;;;;24.77;51.48;95706.78;1777826;81;21049;-60
2021/06/19 08:35:13;;;;;;;2.45;2.25;;;;;;;24.52;48.03;95714.45;1777607;81;20997;-60
2021/06/19 08:37:40;;;;;;;4.12;3.00;;;;;;;24.25;50.13;95714.58;1777810;81;21041;-60
2021/06/19 08:40:08;;;;;;;3.98;2.98;;;;;;;24.25;50.64;95722.17;1777581;80;21014;-60
2021/06/19 08:42:36;;;;;;;3.00;2.80;;;;;;;24.18;49.06;95712.79;1777711;80;21136;-60
2021/06/19 08:45:05;;;;;;;3.87;3.02;;;;;;;23.90;47.75;95704.44;1777597;81;20974;-60
2021/06/19 08:47:36;;;;;;;3.27;2.98;;;;;;;23.79;51.50;95708.34;1777995;80;21007;-60
2021/06/19 08:50:15;;;;;;;3.50;3.17;;;;;;;23.82;52.80;95703.63;1777795;81;21499;-60
2021/06/19 08:52:45;;;;;;;4.22;3.42;;;;;;;24.01;52.93;95703.67;1777716;81;21109;-60
2021/06/19 08:55:14;;;;;;;5.08;3.05;;;;;;;24.14;51.86;95708.11;1777881;81;21498;-60
2021/06/19 08:57:43;;;;;;;2.50;2.30;;;;;;;24.40;52.76;95705.39;1777629;80;21058;-60
2021/06/19 09:00:12;;;;;;;4.15;2.60;;;;;;;24.55;49.19;95699.41;1777792;81;21543;-60
2021/06/19 09:02:39;;;;;;;3.90;2.95;;;;;;;24.48;50.25;95698.12;1778003;81;21017;-60
2021/06/19 09:05:13;;;;;;;5.53;3.12;;;;;;;24.40;50.65;95711.64;1777455;81;20979;-59
2021/06/19 09:07:49;;;;;;;3.30;3.00;;;;;;;24.26;50.69;95711.75;1777851;80;21041;-59
2021/06/19 09:10:32;;;;;;;2.98;2.70;;;;;;;24.10;51.18;95709.28;1777762;81;21436;-60
2021/06/19 09:13:18;;;;;;;;;;;;;;;24.00;50.80;95709.56;1780468;81;21082;-60
2021/06/19 09:15:49;;;;;;;3.33;2.80;;;;;;;24.03;50.88;95707.98;1777872;80;20117;-60
2021/06/19 09:18:24;;;;;;;3.00;2.33;;;;;;;24.53;51.22;95694.11;1777816;81;20982;-60
2021/06/19 09:21:00;;;;;;;2.90;2.70;;;;;;;25.01;50.04;95694.67;1777912;81;21044;-60
2021/06/19 09:23:34;;;;;;;2.83;2.50;;;;;;;25.48;48.11;95692.98;1777920;81;20971;-59
2021/06/19 09:26:26;;;;;;;3.08;2.62;;;;;;;25.79;47.92;95699.58;1777645;81;21538;-60
2021/06/19 09:29:01;;;;;;;3.35;2.58;;;;;;;25.99;47.79;95696.70;1778386;81;20997;-60
2021/06/19 09:31:53;;;;;;;4.22;2.70;;;;;;;26.12;46.21;95697.95;1777678;80;20982;-60
2021/06/19 09:34:25;;;;;;;3.10;2.40;;;;;;;26.08;46.67;95695.11;1777670;81;20986;-60
2021/06/19 09:36:58;;;;;;;4.45;2.80;;;;;;;26.35;45.34;95686.66;1778078;81;21532;-60
2021/06/19 09:39:29;;;;;;;2.42;2.22;;;;;;;26.62;46.41;95681.41;1777057;81;21025;-60
2021/06/19 09:42:04;;;;;;;3.65;2.50;;;;;;;26.78;42.69;95681.00;1777475;80;21598;-60
2021/06/19 09:44:43;;;;;;;4.05;2.98;;;;;;;27.04;43.86;95689.21;1777889;80;20978;-60
2021/06/19 09:47:13;;;;;;;2.52;2.33;;;;;;;27.11;42.60;95697.17;1777653;81;21522;-60
2021/06/19 09:49:43;;;;;;;2.77;2.55;;;;;;;26.94;43.28;95695.88;1777249;81;21522;-60
2021/06/19 09:52:11;;;;;;;2.60;2.40;;;;;;;26.79;43.51;95695.78;1777681;81;21006;-60
2021/06/19 09:54:45;;;;;;;2.52;2.27;;;;;;;26.76;42.69;95696.89;1777901;81;21112;-60
2021/06/19 09:57:18;;;;;;;3.30;2.77;;;;;;;26.78;42.03;95694.54;1777843;80;21013;-60
2021/06/19 09:59:45;;;;;;;3.33;2.95;;;;;;;26.56;43.68;95700.36;1777314;80;21002;-60
2021/06/19 10:02:30;;;;;;;4.33;2.85;;;;;;;26.42;43.07;95692.45;1777779;81;21495;-60
2021/06/19 10:04:57;;;;;;;4.92;2.72;;;;;;;26.26;44.62;95694.17;1777538;81;21109;-60
2021/06/19 10:07:27;;;;;;;3.58;2.80;;;;;;;26.04;44.92;95694.50;1777523;81;21002;-60
2021/06/19 10:09:56;;;;;;;4.55;3.02;;;;;;;25.73;45.47;95693.77;1777777;81;21070;-60
2021/06/19 10:12:27;;;;;;;3.25;3.00;;;;;;;25.43;46.96;95705.97;1777783;80;20989;-59
2021/06/19 10:15:03;;;;;;;3.30;3.00;;;;;;;25.26;46.84;95712.14;1777280;80;21022;-60
2021/06/19 10:17:36;;;;;;;3.17;2.87;;;;;;;25.00;46.58;95703.27;1777835;81;20998;-60
2021/06/19 10:20:07;;;;;;;3.33;3.02;;;;;;;24.84;46.98;95706.71;1777457;80;21014;-60
2021/06/19 10:22:36;;;;;;;3.33;3.00;;;;;;;24.78;48.52;95699.08;1777793;81;21543;-60
2021/06/19 10:25:07;;;;;;;3.30;3.00;;;;;;;24.76;48.76;95698.33;1777926;81;21035;-60
2021/06/19 10:27:40;;;;;;;3.77;3.47;;;;;;;24.60;49.17;95708.03;1777660;81;21037;-60
2021/06/19 10:30:08;;;;;;;3.65;3.25;;;;;;;24.51;49.33;95715.43;1728532;81;21018;-60
2021/06/19 10:32:44;;;;;;;4.65;3.62;;;;;;;24.39;50.15;95715.78;1777877;81;21463;-60
2021/06/19 10:35:16;;;;;;;3.40;3.10;;;;;;;24.23;51.56;95713.81;1777569;81;21054;-60
2021/06/19 10:37:44;;;;;;;7.20;4.00;;;;;;;24.22;51.18;95711.61;1777929;81;20989;-60
2021/06/19 10:40:27;;;;;;;4.17;3.80;;;;;;;24.28;51.94;95708.47;1777847;81;21476;-59
2021/06/19 10:42:56;;;;;;;;;;;;;;;24.34;51.94;95712.55;1780142;80;21050;-60
2021/06/19 10:45:30;;;;;;;4.70;3.70;;;;;;;24.33;52.34;95710.34;1751977;81;20101;-60
2021/06/19 10:48:09;;;;;;;4.65;4.22;;;;;;;24.37;52.58;95712.36;1777437;81;21053;-60
2021/06/19 10:50:40;;;;;;;7.58;4.47;;;;;;;24.32;52.69;95719.91;1777587;81;21066;-60
2021/06/19 10:53:15;;;;;;;4.72;4.28;;;;;;;24.32;52.80;95721.27;1777848;80;21539;-60
2021/06/19 10:55:56;;;;;;;8.43;4.50;;;;;;;24.13;53.05;95717.16;1777860;81;21041;-60
2021/06/19 10:58:33;;;;;;;7.08;4.17;;;;;;;24.12;54.27;95710.54;1777836;81;20997;-60
2021/06/19 11:01:05;;;;;;;6.37;4.60;;;;;;;24.17;54.21;95717.81;1777679;80;20990;-59
2021/06/19 11:03:49;;;;;;;4.50;4.00;;;;;;;24.25;53.69;95715.43;1777561;81;21026;-60
2021/06/19 11:06:26;;;;;;;5.00;4.17;;;;;;;24.25;53.32;95717.27;1777461;81;21070;-60
2021/06/19 11:09:15;;;;;;;5.22;4.42;;;;;;;24.24;53.78;95718.22;1777656;81;21045;-60
2021/06/19 11:12:02;;;;;;;6.17;4.25;;;;;;;24.29;55.36;95718.30;1777721;81;21005;-60
2021/06/19 11:14:46;;;;;;;4.28;3.90;;;;;;;24.32;54.81;95716.72;1777868;80;20981;-59
2021/06/19 11:17:34;;;;;;;4.33;3.75;;;;;;;24.35;55.00;95710.25;1777813;80;21121;-60
2021/06/19 11:20:16;;;;;;;3.85;3.55;;;;;;;24.40;54.29;95702.69;1777238;81;21021;-60
2021/06/19 11:22:54;;;;;;;;;;;;;;;24.28;53.58;95707.61;1780157;81;21049;-60
2021/06/19 11:25:37;;;;;;;4.05;3.75;;;;;;;24.19;55.23;95710.45;1777316;81;20108;-60
2021/06/19 11:28:21;;;;;;;5.58;4.15;;;;;;;24.13;54.54;95709.55;1777669;81;21026;-60
2021/06/19 11:31:01;;;;;;;5.28;3.72;;;;;;;24.05;55.20;95718.19;1767120;81;21029;-60
2021/06/19 11:33:39;;;;;;;4.65;3.62;;;;;;;24.05;54.09;95704.70;1777814;81;21006;-60
2021/06/19 11:36:09;;;;;;;3.72;3.40;;;;;;;24.07;53.72;95701.42;1777217;81;21010;-59
2021/06/19 11:38:59;;;;;;;4.40;4.00;;;;;;;24.05;53.44;95703.36;1777241;81;21712;-60
2021/06/19 11:41:34;;;;;;;3.87;3.25;;;;;;;23.97;54.35;95699.00;1777724;80;21519;-59
2021/06/19 11:44:11;;;;;;;4.15;3.85;;;;;;;23.93;54.29;95698.83;1783747;80;21041;-60
2021/06/19 11:46:38;;;;;;;5.20;4.25;;;;;;;23.99;54.95;95691.67;1787712;80;20990;-60
2021/06/19 11:49:09;;;;;;;5.65;4.12;;;;;;;24.05;54.98;95698.46;1787435;80;21025;-60